sensor_id;sensor_type;location;lat;lon;timestamp;P1;durP1;ratioP1;P2;durP2;ratioP2
13185;SDS011;6658;53.080;7.428;2023-05-07T00:00:04;18.97;;;17.10;;
13185;SDS011;6658;53.080;7.428;2023-05-07T00:02:33;20.13;;;18.13;;
13185;SDS011;6658;53.080;7.428;2023-05-07T00:04:59;20.13;;;18.03;;
13185;SDS011;6658;53.080;7.428;2023-05-07T00:07:24;18.63;;;16.73;;
13185;SDS011;6658;53.080;7.428;2023-05-07T00:09:50;18.97;;;16.97;;
13185;SDS011;6658;53.080;7.428;2023-05-07T00:12:16;19.90;;;16.87;;
13185;SDS011;6658;53.080;7.428;2023-05-07T00:14:41;18.77;;;16.93;;
13185;SDS011;6658;53.080;7.428;2023-05-07T00:17:07;19.50;;;17.37;;
13185;SDS011;6658;53.080;7.428;2023-05-07T00:19:33;20.63;;;18.53;;
13185;SDS011;6658;53.080;7.428;2023-05-07T00:21:58;20.57;;;17.40;;
13185;SDS011;6658;53.080;7.428;2023-05-07T00:24:24;19.90;;;17.90;;
13185;SDS011;6658;53.080;7.428;2023-05-07T00:26:50;20.87;;;18.67;;
13185;SDS011;6658;53.080;7.428;2023-05-07T00:29:16;20.33;;;18.23;;
13185;SDS011;6658;53.080;7.428;2023-05-07T00:31:41;18.63;;;16.73;;
13185;SDS011;6658;53.080;7.428;2023-05-07T00:34:07;19.70;;;17.20;;
13185;SDS011;6658;53.080;7.428;2023-05-07T00:36:33;18.80;;;16.93;;
13185;SDS011;6658;53.080;7.428;2023-05-07T00:38:59;19.90;;;17.90;;
13185;SDS011;6658;53.080;7.428;2023-05-07T00:41:27;18.73;;;16.80;;
13185;SDS011;6658;53.080;7.428;2023-05-07T00:43:52;18.87;;;16.60;;
13185;SDS011;6658;53.080;7.428;2023-05-07T00:46:19;18.93;;;16.93;;
13185;SDS011;6658;53.080;7.428;2023-05-07T00:48:46;17.90;;;15.97;;
13185;SDS011;6658;53.080;7.428;2023-05-07T00:51:12;16.97;;;15.20;;
13185;SDS011;6658;53.080;7.428;2023-05-07T00:53:38;18.67;;;16.77;;
13185;SDS011;6658;53.080;7.428;2023-05-07T00:56:05;18.20;;;16.13;;
13185;SDS011;6658;53.080;7.428;2023-05-07T00:58:31;17.33;;;15.40;;
13185;SDS011;6658;53.080;7.428;2023-05-07T01:00:58;16.97;;;15.27;;
13185;SDS011;6658;53.080;7.428;2023-05-07T01:03:24;17.17;;;15.57;;
13185;SDS011;6658;53.080;7.428;2023-05-07T01:05:50;17.97;;;16.07;;
13185;SDS011;6658;53.080;7.428;2023-05-07T01:08:18;17.00;;;15.27;;
13185;SDS011;6658;53.080;7.428;2023-05-07T01:10:45;16.57;;;14.90;;
13185;SDS011;6658;53.080;7.428;2023-05-07T01:13:12;17.17;;;15.37;;
13185;SDS011;6658;53.080;7.428;2023-05-07T01:15:39;17.30;;;14.80;;
13185;SDS011;6658;53.080;7.428;2023-05-07T01:18:06;15.47;;;13.97;;
13185;SDS011;6658;53.080;7.428;2023-05-07T01:20:32;18.03;;;16.13;;
13185;SDS011;6658;53.080;7.428;2023-05-07T01:22:58;16.90;;;15.20;;
13185;SDS011;6658;53.080;7.428;2023-05-07T01:25:26;16.40;;;14.80;;
13185;SDS011;6658;53.080;7.428;2023-05-07T01:27:57;16.77;;;15.17;;
13185;SDS011;6658;53.080;7.428;2023-05-07T01:30:26;15.63;;;14.03;;
13185;SDS011;6658;53.080;7.428;2023-05-07T01:33:00;17.03;;;15.00;;
13185;SDS011;6658;53.080;7.428;2023-05-07T01:35:35;16.10;;;14.50;;
13185;SDS011;6658;53.080;7.428;2023-05-07T01:38:04;16.00;;;14.10;;
13185;SDS011;6658;53.080;7.428;2023-05-07T01:40:31;16.77;;;14.97;;
13185;SDS011;6658;53.080;7.428;2023-05-07T01:42:57;16.93;;;15.20;;
13185;SDS011;6658;53.080;7.428;2023-05-07T01:45:22;17.80;;;15.77;;
13185;SDS011;6658;53.080;7.428;2023-05-07T01:47:49;17.70;;;15.80;;
13185;SDS011;6658;53.080;7.428;2023-05-07T01:50:18;17.40;;;15.57;;
13185;SDS011;6658;53.080;7.428;2023-05-07T01:52:46;19.00;;;17.20;;
13185;SDS011;6658;53.080;7.428;2023-05-07T01:55:12;19.90;;;17.80;;
13185;SDS011;6658;53.080;7.428;2023-05-07T01:57:38;19.60;;;17.53;;
13185;SDS011;6658;53.080;7.428;2023-05-07T02:00:04;19.60;;;17.60;;
13185;SDS011;6658;53.080;7.428;2023-05-07T02:02:30;18.80;;;16.90;;
13185;SDS011;6658;53.080;7.428;2023-05-07T02:04:56;18.93;;;16.93;;
13185;SDS011;6658;53.080;7.428;2023-05-07T02:07:22;18.43;;;16.53;;
13185;SDS011;6658;53.080;7.428;2023-05-07T02:09:47;19.73;;;16.77;;
13185;SDS011;6658;53.080;7.428;2023-05-07T02:12:13;17.43;;;15.53;;
13185;SDS011;6658;53.080;7.428;2023-05-07T02:14:39;17.80;;;16.10;;
13185;SDS011;6658;53.080;7.428;2023-05-07T02:17:05;18.60;;;15.90;;
13185;SDS011;6658;53.080;7.428;2023-05-07T02:19:30;16.90;;;15.20;;
13185;SDS011;6658;53.080;7.428;2023-05-07T02:21:56;18.33;;;16.43;;
13185;SDS011;6658;53.080;7.428;2023-05-07T02:24:22;17.37;;;15.47;;
13185;SDS011;6658;53.080;7.428;2023-05-07T02:26:48;16.37;;;14.67;;
13185;SDS011;6658;53.080;7.428;2023-05-07T02:29:13;16.17;;;14.57;;
13185;SDS011;6658;53.080;7.428;2023-05-07T02:31:39;17.07;;;15.20;;
13185;SDS011;6658;53.080;7.428;2023-05-07T02:34:05;15.60;;;14.10;;
13185;SDS011;6658;53.080;7.428;2023-05-07T02:36:31;16.43;;;14.73;;
13185;SDS011;6658;53.080;7.428;2023-05-07T02:38:56;16.90;;;15.10;;
13185;SDS011;6658;53.080;7.428;2023-05-07T02:41:22;16.60;;;14.83;;
13185;SDS011;6658;53.080;7.428;2023-05-07T02:43:48;16.57;;;14.83;;
13185;SDS011;6658;53.080;7.428;2023-05-07T02:46:14;15.97;;;14.37;;
13185;SDS011;6658;53.080;7.428;2023-05-07T02:48:40;15.50;;;13.90;;
13185;SDS011;6658;53.080;7.428;2023-05-07T02:51:06;16.33;;;14.73;;
13185;SDS011;6658;53.080;7.428;2023-05-07T02:53:32;16.77;;;15.00;;
13185;SDS011;6658;53.080;7.428;2023-05-07T02:55:58;16.20;;;13.83;;
13185;SDS011;6658;53.080;7.428;2023-05-07T02:58:25;16.10;;;14.50;;
13185;SDS011;6658;53.080;7.428;2023-05-07T03:00:51;16.13;;;14.20;;
13185;SDS011;6658;53.080;7.428;2023-05-07T03:03:17;16.43;;;14.73;;
13185;SDS011;6658;53.080;7.428;2023-05-07T03:05:43;17.17;;;14.87;;
13185;SDS011;6658;53.080;7.428;2023-05-07T03:08:08;16.77;;;14.90;;
13185;SDS011;6658;53.080;7.428;2023-05-07T03:10:35;17.73;;;15.93;;
13185;SDS011;6658;53.080;7.428;2023-05-07T03:13:01;18.47;;;16.53;;
13185;SDS011;6658;53.080;7.428;2023-05-07T03:15:27;18.77;;;16.90;;
13185;SDS011;6658;53.080;7.428;2023-05-07T03:17:52;20.80;;;18.63;;
13185;SDS011;6658;53.080;7.428;2023-05-07T03:20:18;21.70;;;19.50;;
13185;SDS011;6658;53.080;7.428;2023-05-07T03:22:44;21.77;;;19.57;;
13185;SDS011;6658;53.080;7.428;2023-05-07T03:25:10;23.70;;;21.23;;
13185;SDS011;6658;53.080;7.428;2023-05-07T03:27:36;21.87;;;19.67;;
13185;SDS011;6658;53.080;7.428;2023-05-07T03:30:02;21.63;;;19.47;;
13185;SDS011;6658;53.080;7.428;2023-05-07T03:32:28;22.70;;;20.33;;
13185;SDS011;6658;53.080;7.428;2023-05-07T03:34:54;21.10;;;18.90;;
13185;SDS011;6658;53.080;7.428;2023-05-07T03:37:20;20.97;;;18.87;;
13185;SDS011;6658;53.080;7.428;2023-05-07T03:39:46;20.67;;;18.73;;
13185;SDS011;6658;53.080;7.428;2023-05-07T03:42:12;21.70;;;19.40;;
13185;SDS011;6658;53.080;7.428;2023-05-07T03:44:38;22.77;;;20.37;;
13185;SDS011;6658;53.080;7.428;2023-05-07T03:47:04;23.90;;;21.50;;
13185;SDS011;6658;53.080;7.428;2023-05-07T03:49:30;25.27;;;21.23;;
13185;SDS011;6658;53.080;7.428;2023-05-07T03:51:55;23.57;;;21.07;;
13185;SDS011;6658;53.080;7.428;2023-05-07T03:54:21;24.37;;;21.87;;
13185;SDS011;6658;53.080;7.428;2023-05-07T03:56:47;23.43;;;21.10;;
13185;SDS011;6658;53.080;7.428;2023-05-07T03:59:13;22.80;;;20.50;;
13185;SDS011;6658;53.080;7.428;2023-05-07T04:01:39;25.90;;;23.13;;
13185;SDS011;6658;53.080;7.428;2023-05-07T04:04:05;25.40;;;22.87;;
13185;SDS011;6658;53.080;7.428;2023-05-07T04:06:30;25.13;;;22.63;;
13185;SDS011;6658;53.080;7.428;2023-05-07T04:08:56;25.43;;;23.00;;
13185;SDS011;6658;53.080;7.428;2023-05-07T04:11:22;24.73;;;22.20;;
13185;SDS011;6658;53.080;7.428;2023-05-07T04:13:48;23.80;;;21.23;;
13185;SDS011;6658;53.080;7.428;2023-05-07T04:16:14;22.63;;;20.30;;
13185;SDS011;6658;53.080;7.428;2023-05-07T04:18:43;21.23;;;19.07;;
13185;SDS011;6658;53.080;7.428;2023-05-07T04:21:15;20.47;;;18.23;;
13185;SDS011;6658;53.080;7.428;2023-05-07T04:23:45;19.93;;;17.90;;
13185;SDS011;6658;53.080;7.428;2023-05-07T04:26:16;19.10;;;17.10;;
13185;SDS011;6658;53.080;7.428;2023-05-07T04:28:42;18.53;;;16.60;;
13185;SDS011;6658;53.080;7.428;2023-05-07T04:31:08;20.03;;;18.03;;
13185;SDS011;6658;53.080;7.428;2023-05-07T04:33:34;20.37;;;18.27;;
13185;SDS011;6658;53.080;7.428;2023-05-07T04:36:03;19.97;;;18.00;;
13185;SDS011;6658;53.080;7.428;2023-05-07T04:38:30;18.43;;;16.40;;
13185;SDS011;6658;53.080;7.428;2023-05-07T04:40:56;17.90;;;16.10;;
13185;SDS011;6658;53.080;7.428;2023-05-07T04:43:26;17.17;;;15.13;;
13185;SDS011;6658;53.080;7.428;2023-05-07T04:45:52;14.70;;;13.20;;
13185;SDS011;6658;53.080;7.428;2023-05-07T04:48:17;14.23;;;12.83;;
13185;SDS011;6658;53.080;7.428;2023-05-07T04:50:51;13.20;;;10.90;;
13185;SDS011;6658;53.080;7.428;2023-05-07T04:53:17;13.63;;;12.33;;
13185;SDS011;6658;53.080;7.428;2023-05-07T04:55:49;13.70;;;12.37;;
13185;SDS011;6658;53.080;7.428;2023-05-07T04:58:22;15.37;;;13.87;;
13185;SDS011;6658;53.080;7.428;2023-05-07T05:00:48;15.67;;;14.10;;
13185;SDS011;6658;53.080;7.428;2023-05-07T05:03:14;15.50;;;14.00;;
13185;SDS011;6658;53.080;7.428;2023-05-07T05:05:40;15.77;;;14.17;;
13185;SDS011;6658;53.080;7.428;2023-05-07T05:08:06;16.80;;;15.10;;
13185;SDS011;6658;53.080;7.428;2023-05-07T05:10:32;16.03;;;14.43;;
13185;SDS011;6658;53.080;7.428;2023-05-07T05:12:57;17.17;;;15.47;;
13185;SDS011;6658;53.080;7.428;2023-05-07T05:15:23;17.93;;;16.13;;
13185;SDS011;6658;53.080;7.428;2023-05-07T05:17:49;17.37;;;15.63;;
13185;SDS011;6658;53.080;7.428;2023-05-07T05:20:14;17.00;;;15.30;;
13185;SDS011;6658;53.080;7.428;2023-05-07T05:22:41;16.03;;;14.37;;
13185;SDS011;6658;53.080;7.428;2023-05-07T05:25:07;16.03;;;14.50;;
13185;SDS011;6658;53.080;7.428;2023-05-07T05:27:33;18.13;;;16.37;;
13185;SDS011;6658;53.080;7.428;2023-05-07T05:30:00;18.60;;;16.80;;
13185;SDS011;6658;53.080;7.428;2023-05-07T05:32:26;20.50;;;18.50;;
13185;SDS011;6658;53.080;7.428;2023-05-07T05:34:51;18.00;;;16.10;;
13185;SDS011;6658;53.080;7.428;2023-05-07T05:37:17;16.97;;;15.37;;
13185;SDS011;6658;53.080;7.428;2023-05-07T05:39:43;16.90;;;15.20;;
13185;SDS011;6658;53.080;7.428;2023-05-07T05:42:09;16.00;;;14.50;;
13185;SDS011;6658;53.080;7.428;2023-05-07T05:44:34;15.80;;;14.20;;
13185;SDS011;6658;53.080;7.428;2023-05-07T05:47:00;17.30;;;15.70;;
13185;SDS011;6658;53.080;7.428;2023-05-07T05:49:26;18.33;;;16.63;;
13185;SDS011;6658;53.080;7.428;2023-05-07T05:51:52;17.83;;;16.10;;
13185;SDS011;6658;53.080;7.428;2023-05-07T05:54:17;20.10;;;18.00;;
13185;SDS011;6658;53.080;7.428;2023-05-07T05:56:43;19.90;;;18.00;;
13185;SDS011;6658;53.080;7.428;2023-05-07T05:59:09;16.97;;;15.20;;
13185;SDS011;6658;53.080;7.428;2023-05-07T06:01:35;17.97;;;16.13;;
13185;SDS011;6658;53.080;7.428;2023-05-07T06:04:01;18.17;;;16.37;;
13185;SDS011;6658;53.080;7.428;2023-05-07T06:06:27;16.33;;;14.73;;
13185;SDS011;6658;53.080;7.428;2023-05-07T06:08:56;14.93;;;13.33;;
13185;SDS011;6658;53.080;7.428;2023-05-07T06:11:22;15.67;;;12.57;;
13185;SDS011;6658;53.080;7.428;2023-05-07T06:13:48;14.57;;;13.07;;
13185;SDS011;6658;53.080;7.428;2023-05-07T06:16:13;13.33;;;12.03;;
13185;SDS011;6658;53.080;7.428;2023-05-07T06:18:40;13.37;;;12.07;;
13185;SDS011;6658;53.080;7.428;2023-05-07T06:21:05;14.03;;;12.43;;
13185;SDS011;6658;53.080;7.428;2023-05-07T06:23:31;12.67;;;11.47;;
13185;SDS011;6658;53.080;7.428;2023-05-07T06:25:57;13.10;;;11.80;;
13185;SDS011;6658;53.080;7.428;2023-05-07T06:28:26;13.80;;;12.50;;
13185;SDS011;6658;53.080;7.428;2023-05-07T06:30:52;15.93;;;13.73;;
13185;SDS011;6658;53.080;7.428;2023-05-07T06:33:18;14.10;;;12.70;;
13185;SDS011;6658;53.080;7.428;2023-05-07T06:35:44;14.77;;;13.27;;
13185;SDS011;6658;53.080;7.428;2023-05-07T06:38:10;14.03;;;12.73;;
13185;SDS011;6658;53.080;7.428;2023-05-07T06:40:47;14.60;;;13.10;;
13185;SDS011;6658;53.080;7.428;2023-05-07T06:43:14;15.10;;;13.60;;
13185;SDS011;6658;53.080;7.428;2023-05-07T06:45:40;15.27;;;13.77;;
13185;SDS011;6658;53.080;7.428;2023-05-07T06:48:05;15.63;;;13.67;;
13185;SDS011;6658;53.080;7.428;2023-05-07T06:50:31;14.40;;;13.00;;
13185;SDS011;6658;53.080;7.428;2023-05-07T06:52:57;14.57;;;13.17;;
13185;SDS011;6658;53.080;7.428;2023-05-07T06:55:23;14.63;;;13.20;;
13185;SDS011;6658;53.080;7.428;2023-05-07T06:57:48;12.93;;;11.63;;
13185;SDS011;6658;53.080;7.428;2023-05-07T07:00:14;13.97;;;12.40;;
13185;SDS011;6658;53.080;7.428;2023-05-07T07:02:40;13.17;;;11.77;;
13185;SDS011;6658;53.080;7.428;2023-05-07T07:05:06;12.97;;;11.73;;
13185;SDS011;6658;53.080;7.428;2023-05-07T07:07:32;12.97;;;11.67;;
13185;SDS011;6658;53.080;7.428;2023-05-07T07:09:58;13.07;;;11.70;;
13185;SDS011;6658;53.080;7.428;2023-05-07T07:12:23;11.53;;;10.43;;
13185;SDS011;6658;53.080;7.428;2023-05-07T07:14:51;12.63;;;11.33;;
13185;SDS011;6658;53.080;7.428;2023-05-07T07:17:16;12.53;;;11.33;;
13185;SDS011;6658;53.080;7.428;2023-05-07T07:19:42;12.10;;;10.90;;
13185;SDS011;6658;53.080;7.428;2023-05-07T07:22:08;12.63;;;11.43;;
13185;SDS011;6658;53.080;7.428;2023-05-07T07:24:33;11.97;;;10.87;;
13185;SDS011;6658;53.080;7.428;2023-05-07T07:26:59;11.73;;;10.60;;
13185;SDS011;6658;53.080;7.428;2023-05-07T07:29:25;10.30;;;9.23;;
13185;SDS011;6658;53.080;7.428;2023-05-07T07:31:52;10.90;;;9.80;;
13185;SDS011;6658;53.080;7.428;2023-05-07T07:34:17;10.80;;;9.77;;
13185;SDS011;6658;53.080;7.428;2023-05-07T07:36:43;10.40;;;9.40;;
13185;SDS011;6658;53.080;7.428;2023-05-07T07:39:09;11.23;;;10.00;;
13185;SDS011;6658;53.080;7.428;2023-05-07T07:41:34;9.97;;;9.07;;
13185;SDS011;6658;53.080;7.428;2023-05-07T07:44:00;10.00;;;9.00;;
13185;SDS011;6658;53.080;7.428;2023-05-07T07:46:28;10.40;;;9.40;;
13185;SDS011;6658;53.080;7.428;2023-05-07T07:48:54;11.20;;;10.10;;
13185;SDS011;6658;53.080;7.428;2023-05-07T07:51:20;11.20;;;10.20;;
13185;SDS011;6658;53.080;7.428;2023-05-07T07:53:46;10.83;;;9.83;;
13185;SDS011;6658;53.080;7.428;2023-05-07T07:56:11;10.17;;;9.23;;
13185;SDS011;6658;53.080;7.428;2023-05-07T07:58:37;11.00;;;9.90;;
13185;SDS011;6658;53.080;7.428;2023-05-07T08:01:06;10.60;;;9.57;;
13185;SDS011;6658;53.080;7.428;2023-05-07T08:03:32;10.20;;;9.20;;
13185;SDS011;6658;53.080;7.428;2023-05-07T08:05:58;9.60;;;8.73;;
13185;SDS011;6658;53.080;7.428;2023-05-07T08:08:23;9.50;;;8.60;;
13185;SDS011;6658;53.080;7.428;2023-05-07T08:10:49;9.70;;;8.80;;
13185;SDS011;6658;53.080;7.428;2023-05-07T08:13:15;8.87;;;7.97;;
13185;SDS011;6658;53.080;7.428;2023-05-07T08:15:45;8.87;;;7.97;;
13185;SDS011;6658;53.080;7.428;2023-05-07T08:18:10;8.43;;;7.63;;
13185;SDS011;6658;53.080;7.428;2023-05-07T08:20:36;8.27;;;7.53;;
13185;SDS011;6658;53.080;7.428;2023-05-07T08:23:04;8.13;;;7.43;;
13185;SDS011;6658;53.080;7.428;2023-05-07T08:25:32;8.60;;;7.83;;
13185;SDS011;6658;53.080;7.428;2023-05-07T08:27:59;7.60;;;6.90;;
13185;SDS011;6658;53.080;7.428;2023-05-07T08:30:25;7.30;;;6.60;;
13185;SDS011;6658;53.080;7.428;2023-05-07T08:32:51;7.23;;;6.53;;
13185;SDS011;6658;53.080;7.428;2023-05-07T08:35:16;7.53;;;6.93;;
13185;SDS011;6658;53.080;7.428;2023-05-07T08:37:42;6.83;;;6.23;;
13185;SDS011;6658;53.080;7.428;2023-05-07T08:40:09;6.93;;;6.33;;
13185;SDS011;6658;53.080;7.428;2023-05-07T08:42:35;7.63;;;6.93;;
13185;SDS011;6658;53.080;7.428;2023-05-07T08:45:03;7.00;;;6.30;;
13185;SDS011;6658;53.080;7.428;2023-05-07T08:47:34;5.87;;;5.37;;
13185;SDS011;6658;53.080;7.428;2023-05-07T08:50:07;7.30;;;6.17;;
13185;SDS011;6658;53.080;7.428;2023-05-07T08:52:33;7.67;;;6.50;;
13185;SDS011;6658;53.080;7.428;2023-05-07T08:55:01;6.33;;;5.73;;
13185;SDS011;6658;53.080;7.428;2023-05-07T08:57:28;6.50;;;5.90;;
13185;SDS011;6658;53.080;7.428;2023-05-07T08:59:53;6.53;;;5.93;;
13185;SDS011;6658;53.080;7.428;2023-05-07T09:02:19;7.27;;;5.63;;
13185;SDS011;6658;53.080;7.428;2023-05-07T09:04:45;5.87;;;5.37;;
13185;SDS011;6658;53.080;7.428;2023-05-07T09:07:11;5.60;;;5.10;;
13185;SDS011;6658;53.080;7.428;2023-05-07T09:09:37;5.63;;;5.13;;
13185;SDS011;6658;53.080;7.428;2023-05-07T09:12:03;5.67;;;5.13;;
13185;SDS011;6658;53.080;7.428;2023-05-07T09:14:29;5.97;;;5.47;;
13185;SDS011;6658;53.080;7.428;2023-05-07T09:16:55;5.57;;;5.07;;
13185;SDS011;6658;53.080;7.428;2023-05-07T09:19:22;5.60;;;5.20;;
13185;SDS011;6658;53.080;7.428;2023-05-07T09:21:49;6.03;;;5.47;;
13185;SDS011;6658;53.080;7.428;2023-05-07T09:24:15;5.63;;;5.13;;
13185;SDS011;6658;53.080;7.428;2023-05-07T09:26:47;5.60;;;5.10;;
13185;SDS011;6658;53.080;7.428;2023-05-07T09:29:12;5.63;;;5.13;;
13185;SDS011;6658;53.080;7.428;2023-05-07T09:31:40;5.00;;;4.60;;
13185;SDS011;6658;53.080;7.428;2023-05-07T09:34:06;6.23;;;5.63;;
13185;SDS011;6658;53.080;7.428;2023-05-07T09:36:32;5.40;;;4.90;;
13185;SDS011;6658;53.080;7.428;2023-05-07T09:39:01;6.83;;;5.03;;
13185;SDS011;6658;53.080;7.428;2023-05-07T09:41:27;6.17;;;4.60;;
13185;SDS011;6658;53.080;7.428;2023-05-07T09:43:55;5.70;;;5.17;;
13185;SDS011;6658;53.080;7.428;2023-05-07T09:46:24;5.87;;;5.37;;
13185;SDS011;6658;53.080;7.428;2023-05-07T09:48:56;5.20;;;4.80;;
13185;SDS011;6658;53.080;7.428;2023-05-07T09:51:28;6.27;;;5.67;;
13185;SDS011;6658;53.080;7.428;2023-05-07T09:54:03;5.60;;;5.10;;
13185;SDS011;6658;53.080;7.428;2023-05-07T09:56:30;5.53;;;5.03;;
13185;SDS011;6658;53.080;7.428;2023-05-07T09:58:57;5.80;;;5.30;;
13185;SDS011;6658;53.080;7.428;2023-05-07T10:01:25;5.67;;;5.17;;
13185;SDS011;6658;53.080;7.428;2023-05-07T10:03:52;6.30;;;5.73;;
13185;SDS011;6658;53.080;7.428;2023-05-07T10:06:19;5.30;;;4.80;;
13185;SDS011;6658;53.080;7.428;2023-05-07T10:08:45;6.13;;;5.40;;
13185;SDS011;6658;53.080;7.428;2023-05-07T10:11:13;5.37;;;4.87;;
13185;SDS011;6658;53.080;7.428;2023-05-07T10:13:41;6.13;;;5.60;;
13185;SDS011;6658;53.080;7.428;2023-05-07T10:16:07;5.60;;;5.10;;
13185;SDS011;6658;53.080;7.428;2023-05-07T10:18:33;6.00;;;5.50;;
13185;SDS011;6658;53.080;7.428;2023-05-07T10:21:11;6.70;;;6.10;;
13185;SDS011;6658;53.080;7.428;2023-05-07T10:23:59;6.37;;;5.80;;
13185;SDS011;6658;53.080;7.428;2023-05-07T10:26:35;6.33;;;5.83;;
13185;SDS011;6658;53.080;7.428;2023-05-07T10:29:14;6.83;;;6.23;;
13185;SDS011;6658;53.080;7.428;2023-05-07T10:34:43;6.30;;;5.73;;
13185;SDS011;6658;53.080;7.428;2023-05-07T10:37:12;6.47;;;5.90;;
13185;SDS011;6658;53.080;7.428;2023-05-07T10:39:38;7.23;;;6.37;;
13185;SDS011;6658;53.080;7.428;2023-05-07T10:42:09;5.77;;;5.27;;
13185;SDS011;6658;53.080;7.428;2023-05-07T10:44:35;6.23;;;5.73;;
13185;SDS011;6658;53.080;7.428;2023-05-07T10:47:09;6.47;;;5.97;;
13185;SDS011;6658;53.080;7.428;2023-05-07T10:49:36;6.17;;;5.67;;
13185;SDS011;6658;53.080;7.428;2023-05-07T10:52:28;6.57;;;5.93;;
13185;SDS011;6658;53.080;7.428;2023-05-07T10:57:43;5.83;;;5.33;;
13185;SDS011;6658;53.080;7.428;2023-05-07T11:00:55;5.60;;;5.20;;
13185;SDS011;6658;53.080;7.428;2023-05-07T11:05:24;5.93;;;5.43;;
13185;SDS011;6658;53.080;7.428;2023-05-07T11:07:54;5.50;;;5.10;;
13185;SDS011;6658;53.080;7.428;2023-05-07T11:10:20;6.17;;;5.57;;
13185;SDS011;6658;53.080;7.428;2023-05-07T11:12:47;6.13;;;5.63;;
13185;SDS011;6658;53.080;7.428;2023-05-07T11:15:14;5.47;;;5.07;;
13185;SDS011;6658;53.080;7.428;2023-05-07T11:17:53;5.40;;;4.90;;
13185;SDS011;6658;53.080;7.428;2023-05-07T11:20:20;6.07;;;5.57;;
13185;SDS011;6658;53.080;7.428;2023-05-07T11:23:12;6.23;;;5.67;;
13185;SDS011;6658;53.080;7.428;2023-05-07T11:26:00;6.07;;;5.57;;
13185;SDS011;6658;53.080;7.428;2023-05-07T11:28:36;5.50;;;4.97;;
13185;SDS011;6658;53.080;7.428;2023-05-07T11:31:03;5.47;;;4.80;;
13185;SDS011;6658;53.080;7.428;2023-05-07T11:33:30;5.40;;;5.00;;
13185;SDS011;6658;53.080;7.428;2023-05-07T11:35:56;5.90;;;5.40;;
13185;SDS011;6658;53.080;7.428;2023-05-07T11:38:23;5.87;;;5.40;;
13185;SDS011;6658;53.080;7.428;2023-05-07T11:40:53;5.17;;;4.77;;
13185;SDS011;6658;53.080;7.428;2023-05-07T11:43:25;5.90;;;5.40;;
13185;SDS011;6658;53.080;7.428;2023-05-07T11:45:52;5.73;;;5.23;;
13185;SDS011;6658;53.080;7.428;2023-05-07T11:48:18;5.43;;;5.03;;
13185;SDS011;6658;53.080;7.428;2023-05-07T11:50:52;4.90;;;4.57;;
13185;SDS011;6658;53.080;7.428;2023-05-07T11:53:19;5.60;;;5.10;;
13185;SDS011;6658;53.080;7.428;2023-05-07T11:55:51;5.43;;;5.03;;
13185;SDS011;6658;53.080;7.428;2023-05-07T11:58:21;6.07;;;4.50;;
13185;SDS011;6658;53.080;7.428;2023-05-07T12:00:49;5.20;;;4.80;;
13185;SDS011;6658;53.080;7.428;2023-05-07T12:03:16;5.23;;;4.83;;
13185;SDS011;6658;53.080;7.428;2023-05-07T12:05:43;5.57;;;4.50;;
13185;SDS011;6658;53.080;7.428;2023-05-07T12:08:15;5.47;;;5.07;;
13185;SDS011;6658;53.080;7.428;2023-05-07T12:10:42;5.03;;;4.63;;
13185;SDS011;6658;53.080;7.428;2023-05-07T12:15:45;4.83;;;4.43;;
13185;SDS011;6658;53.080;7.428;2023-05-07T12:18:11;4.73;;;4.33;;
13185;SDS011;6658;53.080;7.428;2023-05-07T12:20:40;4.97;;;4.57;;
13185;SDS011;6658;53.080;7.428;2023-05-07T12:23:06;5.67;;;5.17;;
13185;SDS011;6658;53.080;7.428;2023-05-07T12:25:34;5.67;;;5.13;;
13185;SDS011;6658;53.080;7.428;2023-05-07T12:28:03;4.70;;;4.40;;
13185;SDS011;6658;53.080;7.428;2023-05-07T12:30:38;5.60;;;5.10;;
13185;SDS011;6658;53.080;7.428;2023-05-07T12:33:05;5.80;;;5.30;;
13185;SDS011;6658;53.080;7.428;2023-05-07T12:35:31;5.17;;;4.77;;
13185;SDS011;6658;53.080;7.428;2023-05-07T12:38:01;5.20;;;4.80;;
13185;SDS011;6658;53.080;7.428;2023-05-07T12:40:42;5.40;;;5.00;;
13185;SDS011;6658;53.080;7.428;2023-05-07T12:43:18;5.60;;;5.10;;
13185;SDS011;6658;53.080;7.428;2023-05-07T12:45:45;6.07;;;5.53;;
13185;SDS011;6658;53.080;7.428;2023-05-07T12:48:13;5.73;;;5.20;;
13185;SDS011;6658;53.080;7.428;2023-05-07T12:50:39;6.10;;;5.50;;
13185;SDS011;6658;53.080;7.428;2023-05-07T12:53:06;5.93;;;5.43;;
13185;SDS011;6658;53.080;7.428;2023-05-07T12:55:54;5.60;;;5.10;;
13185;SDS011;6658;53.080;7.428;2023-05-07T12:58:23;5.47;;;5.07;;
13185;SDS011;6658;53.080;7.428;2023-05-07T13:00:52;5.47;;;5.07;;
13185;SDS011;6658;53.080;7.428;2023-05-07T13:03:34;5.50;;;5.10;;
13185;SDS011;6658;53.080;7.428;2023-05-07T13:06:02;5.50;;;5.03;;
13185;SDS011;6658;53.080;7.428;2023-05-07T13:11:00;5.83;;;5.43;;
13185;SDS011;6658;53.080;7.428;2023-05-07T13:13:30;6.10;;;5.60;;
13185;SDS011;6658;53.080;7.428;2023-05-07T13:16:00;5.90;;;5.50;;
13185;SDS011;6658;53.080;7.428;2023-05-07T13:18:29;5.93;;;5.33;;
13185;SDS011;6658;53.080;7.428;2023-05-07T13:20:59;5.27;;;4.87;;
13185;SDS011;6658;53.080;7.428;2023-05-07T13:23:26;5.80;;;5.30;;
13185;SDS011;6658;53.080;7.428;2023-05-07T13:25:52;6.50;;;6.00;;
13185;SDS011;6658;53.080;7.428;2023-05-07T13:28:19;5.73;;;5.23;;
13185;SDS011;6658;53.080;7.428;2023-05-07T13:30:45;6.20;;;5.70;;
13185;SDS011;6658;53.080;7.428;2023-05-07T13:33:11;6.00;;;5.50;;
13185;SDS011;6658;53.080;7.428;2023-05-07T13:35:40;5.80;;;5.30;;
13185;SDS011;6658;53.080;7.428;2023-05-07T13:38:06;6.03;;;5.53;;
13185;SDS011;6658;53.080;7.428;2023-05-07T13:40:35;6.17;;;5.70;;
13185;SDS011;6658;53.080;7.428;2023-05-07T13:43:01;6.63;;;6.13;;
13185;SDS011;6658;53.080;7.428;2023-05-07T13:45:27;6.27;;;5.77;;
13185;SDS011;6658;53.080;7.428;2023-05-07T13:48:04;5.80;;;5.27;;
13185;SDS011;6658;53.080;7.428;2023-05-07T13:50:29;5.97;;;5.47;;
13185;SDS011;6658;53.080;7.428;2023-05-07T13:52:58;5.97;;;5.47;;
13185;SDS011;6658;53.080;7.428;2023-05-07T13:55:28;6.47;;;5.97;;
13185;SDS011;6658;53.080;7.428;2023-05-07T13:58:00;5.97;;;5.50;;
13185;SDS011;6658;53.080;7.428;2023-05-07T14:00:28;6.20;;;5.60;;
13185;SDS011;6658;53.080;7.428;2023-05-07T14:02:55;6.43;;;5.93;;
13185;SDS011;6658;53.080;7.428;2023-05-07T14:05:21;6.53;;;6.03;;
13185;SDS011;6658;53.080;7.428;2023-05-07T14:07:52;6.57;;;6.07;;
13185;SDS011;6658;53.080;7.428;2023-05-07T14:10:19;6.10;;;5.70;;
13185;SDS011;6658;53.080;7.428;2023-05-07T14:12:46;6.70;;;6.10;;
13185;SDS011;6658;53.080;7.428;2023-05-07T14:15:12;6.47;;;5.97;;
13185;SDS011;6658;53.080;7.428;2023-05-07T14:17:38;5.73;;;5.30;;
13185;SDS011;6658;53.080;7.428;2023-05-07T14:20:05;6.03;;;5.53;;
13185;SDS011;6658;53.080;7.428;2023-05-07T14:22:35;6.20;;;5.60;;
13185;SDS011;6658;53.080;7.428;2023-05-07T14:25:01;5.87;;;5.13;;
13185;SDS011;6658;53.080;7.428;2023-05-07T14:27:26;5.43;;;4.93;;
13185;SDS011;6658;53.080;7.428;2023-05-07T14:29:52;6.50;;;5.33;;
13185;SDS011;6658;53.080;7.428;2023-05-07T14:32:18;5.53;;;5.13;;
13185;SDS011;6658;53.080;7.428;2023-05-07T14:34:44;5.30;;;4.80;;
13185;SDS011;6658;53.080;7.428;2023-05-07T14:37:10;5.60;;;5.20;;
13185;SDS011;6658;53.080;7.428;2023-05-07T14:39:36;5.33;;;4.83;;
13185;SDS011;6658;53.080;7.428;2023-05-07T14:42:02;5.13;;;4.67;;
13185;SDS011;6658;53.080;7.428;2023-05-07T14:44:28;5.20;;;4.80;;
13185;SDS011;6658;53.080;7.428;2023-05-07T14:46:54;5.13;;;4.73;;
13185;SDS011;6658;53.080;7.428;2023-05-07T14:49:20;5.27;;;4.87;;
13185;SDS011;6658;53.080;7.428;2023-05-07T14:51:46;5.50;;;4.80;;
13185;SDS011;6658;53.080;7.428;2023-05-07T14:54:12;4.50;;;4.20;;
13185;SDS011;6658;53.080;7.428;2023-05-07T14:56:38;4.80;;;4.40;;
13185;SDS011;6658;53.080;7.428;2023-05-07T14:59:05;5.20;;;4.80;;
13185;SDS011;6658;53.080;7.428;2023-05-07T15:01:31;5.47;;;5.07;;